sensor_id;sensor_type;location;lat;lon;timestamp;P1;durP1;ratioP1;P2;durP2;ratioP2
73585;SDS011;61865;50.232;18.614;2023-08-01T00:02:17;10.50;;;4.57;;
73585;SDS011;61865;50.232;18.614;2023-08-01T00:04:39;16.98;;;3.88;;
73585;SDS011;61865;50.232;18.614;2023-08-01T00:07:01;9.68;;;4.45;;
73585;SDS011;61865;50.232;18.614;2023-08-01T00:09:24;10.75;;;4.72;;
73585;SDS011;61865;50.232;18.614;2023-08-01T00:11:46;9.57;;;4.07;;
73585;SDS011;61865;50.232;18.614;2023-08-01T00:14:08;9.93;;;4.10;;
73585;SDS011;61865;50.232;18.614;2023-08-01T00:16:31;8.27;;;4.50;;
73585;SDS011;61865;50.232;18.614;2023-08-01T00:18:54;6.72;;;4.05;;
73585;SDS011;61865;50.232;18.614;2023-08-01T00:21:17;10.38;;;4.22;;
73585;SDS011;61865;50.232;18.614;2023-08-01T00:23:39;11.38;;;3.88;;
73585;SDS011;61865;50.232;18.614;2023-08-01T00:26:01;6.45;;;3.33;;
73585;SDS011;61865;50.232;18.614;2023-08-01T00:28:24;9.38;;;3.97;;
73585;SDS011;61865;50.232;18.614;2023-08-01T00:30:46;9.82;;;3.47;;
73585;SDS011;61865;50.232;18.614;2023-08-01T00:33:12;6.63;;;3.75;;
73585;SDS011;61865;50.232;18.614;2023-08-01T00:35:36;8.25;;;3.70;;
73585;SDS011;61865;50.232;18.614;2023-08-01T00:37:58;11.02;;;3.92;;
73585;SDS011;61865;50.232;18.614;2023-08-01T00:40:21;7.72;;;3.42;;
73585;SDS011;61865;50.232;18.614;2023-08-01T00:42:43;10.30;;;3.75;;
73585;SDS011;61865;50.232;18.614;2023-08-01T00:45:06;7.88;;;3.80;;
73585;SDS011;61865;50.232;18.614;2023-08-01T00:47:28;8.77;;;3.45;;
73585;SDS011;61865;50.232;18.614;2023-08-01T00:49:50;8.50;;;3.80;;
73585;SDS011;61865;50.232;18.614;2023-08-01T00:52:14;12.15;;;4.28;;
73585;SDS011;61865;50.232;18.614;2023-08-01T00:54:37;10.13;;;3.90;;
73585;SDS011;61865;50.232;18.614;2023-08-01T00:56:59;7.53;;;3.45;;
73585;SDS011;61865;50.232;18.614;2023-08-01T00:59:21;8.40;;;3.33;;
73585;SDS011;61865;50.232;18.614;2023-08-01T01:01:44;10.18;;;3.92;;
73585;SDS011;61865;50.232;18.614;2023-08-01T01:04:06;7.53;;;3.92;;
73585;SDS011;61865;50.232;18.614;2023-08-01T01:06:31;7.78;;;3.55;;
73585;SDS011;61865;50.232;18.614;2023-08-01T01:08:59;11.45;;;3.50;;
73585;SDS011;61865;50.232;18.614;2023-08-01T01:11:21;6.95;;;3.53;;
73585;SDS011;61865;50.232;18.614;2023-08-01T01:13:43;5.93;;;3.50;;
73585;SDS011;61865;50.232;18.614;2023-08-01T01:16:05;13.43;;;3.78;;
73585;SDS011;61865;50.232;18.614;2023-08-01T01:18:28;10.25;;;4.10;;
73585;SDS011;61865;50.232;18.614;2023-08-01T01:20:51;7.05;;;4.05;;
73585;SDS011;61865;50.232;18.614;2023-08-01T01:23:14;6.45;;;3.65;;
73585;SDS011;61865;50.232;18.614;2023-08-01T01:25:36;7.43;;;3.97;;
73585;SDS011;61865;50.232;18.614;2023-08-01T01:27:59;7.22;;;3.08;;
73585;SDS011;61865;50.232;18.614;2023-08-01T01:30:23;8.25;;;3.45;;
73585;SDS011;61865;50.232;18.614;2023-08-01T01:32:45;9.68;;;3.42;;
73585;SDS011;61865;50.232;18.614;2023-08-01T01:35:09;7.68;;;3.53;;
73585;SDS011;61865;50.232;18.614;2023-08-01T01:37:33;10.77;;;3.72;;
73585;SDS011;61865;50.232;18.614;2023-08-01T01:39:55;6.57;;;3.50;;
73585;SDS011;61865;50.232;18.614;2023-08-01T01:42:18;10.40;;;4.25;;
73585;SDS011;61865;50.232;18.614;2023-08-01T01:44:40;8.57;;;3.70;;
73585;SDS011;61865;50.232;18.614;2023-08-01T01:47:02;10.25;;;4.00;;
73585;SDS011;61865;50.232;18.614;2023-08-01T01:49:25;7.47;;;3.50;;
73585;SDS011;61865;50.232;18.614;2023-08-01T01:51:47;6.38;;;3.67;;
73585;SDS011;61865;50.232;18.614;2023-08-01T01:54:11;7.75;;;3.90;;
73585;SDS011;61865;50.232;18.614;2023-08-01T01:56:33;7.82;;;3.70;;
73585;SDS011;61865;50.232;18.614;2023-08-01T01:58:55;8.27;;;3.50;;
73585;SDS011;61865;50.232;18.614;2023-08-01T02:01:18;11.15;;;3.45;;
73585;SDS011;61865;50.232;18.614;2023-08-01T02:03:40;7.93;;;3.38;;
73585;SDS011;61865;50.232;18.614;2023-08-01T02:06:02;7.45;;;3.60;;
73585;SDS011;61865;50.232;18.614;2023-08-01T02:08:25;6.05;;;3.30;;
73585;SDS011;61865;50.232;18.614;2023-08-01T02:10:49;7.90;;;3.20;;
73585;SDS011;61865;50.232;18.614;2023-08-01T02:13:11;6.80;;;3.55;;
73585;SDS011;61865;50.232;18.614;2023-08-01T02:15:33;7.93;;;3.70;;
73585;SDS011;61865;50.232;18.614;2023-08-01T02:17:56;9.75;;;3.65;;
73585;SDS011;61865;50.232;18.614;2023-08-01T02:20:18;13.07;;;3.60;;
73585;SDS011;61865;50.232;18.614;2023-08-01T02:22:40;7.85;;;3.55;;
73585;SDS011;61865;50.232;18.614;2023-08-01T02:25:03;7.57;;;3.55;;
73585;SDS011;61865;50.232;18.614;2023-08-01T02:27:26;7.05;;;3.10;;
73585;SDS011;61865;50.232;18.614;2023-08-01T02:29:49;5.80;;;2.97;;
73585;SDS011;61865;50.232;18.614;2023-08-01T02:32:11;6.57;;;3.50;;
73585;SDS011;61865;50.232;18.614;2023-08-01T02:34:33;6.05;;;3.10;;
73585;SDS011;61865;50.232;18.614;2023-08-01T02:36:56;12.68;;;3.67;;
73585;SDS011;61865;50.232;18.614;2023-08-01T02:39:18;11.15;;;3.10;;
73585;SDS011;61865;50.232;18.614;2023-08-01T02:41:40;7.32;;;3.47;;
73585;SDS011;61865;50.232;18.614;2023-08-01T02:44:04;14.38;;;3.70;;
73585;SDS011;61865;50.232;18.614;2023-08-01T02:46:26;7.90;;;3.60;;
73585;SDS011;61865;50.232;18.614;2023-08-01T02:48:49;9.77;;;3.67;;
73585;SDS011;61865;50.232;18.614;2023-08-01T02:51:12;6.82;;;3.63;;
73585;SDS011;61865;50.232;18.614;2023-08-01T02:53:34;7.03;;;2.95;;
73585;SDS011;61865;50.232;18.614;2023-08-01T02:55:56;7.07;;;3.28;;
73585;SDS011;61865;50.232;18.614;2023-08-01T02:58:19;7.00;;;3.20;;
73585;SDS011;61865;50.232;18.614;2023-08-01T03:00:42;6.78;;;3.20;;
73585;SDS011;61865;50.232;18.614;2023-08-01T03:03:05;7.07;;;3.65;;
73585;SDS011;61865;50.232;18.614;2023-08-01T03:05:27;10.35;;;3.30;;
73585;SDS011;61865;50.232;18.614;2023-08-01T03:07:49;7.63;;;3.78;;
73585;SDS011;61865;50.232;18.614;2023-08-01T03:10:12;7.00;;;3.10;;
73585;SDS011;61865;50.232;18.614;2023-08-01T03:12:34;8.57;;;3.40;;
73585;SDS011;61865;50.232;18.614;2023-08-01T03:14:57;8.77;;;3.30;;
73585;SDS011;61865;50.232;18.614;2023-08-01T03:17:21;7.07;;;3.10;;
73585;SDS011;61865;50.232;18.614;2023-08-01T03:19:43;11.05;;;3.35;;
73585;SDS011;61865;50.232;18.614;2023-08-01T03:22:05;5.00;;;3.03;;
73585;SDS011;61865;50.232;18.614;2023-08-01T03:24:28;5.28;;;2.95;;
73585;SDS011;61865;50.232;18.614;2023-08-01T03:26:50;6.03;;;3.10;;
73585;SDS011;61865;50.232;18.614;2023-08-01T03:29:12;6.53;;;3.22;;
73585;SDS011;61865;50.232;18.614;2023-08-01T03:31:34;8.02;;;3.17;;
73585;SDS011;61865;50.232;18.614;2023-08-01T03:33:58;6.85;;;3.15;;
73585;SDS011;61865;50.232;18.614;2023-08-01T03:36:21;8.65;;;3.65;;
73585;SDS011;61865;50.232;18.614;2023-08-01T03:38:43;9.52;;;3.53;;
73585;SDS011;61865;50.232;18.614;2023-08-01T03:41:05;6.15;;;3.42;;
73585;SDS011;61865;50.232;18.614;2023-08-01T03:43:28;8.10;;;2.85;;
73585;SDS011;61865;50.232;18.614;2023-08-01T03:45:51;7.65;;;3.22;;
73585;SDS011;61865;50.232;18.614;2023-08-01T03:48:13;7.75;;;3.63;;
73585;SDS011;61865;50.232;18.614;2023-08-01T03:50:37;10.00;;;3.90;;
73585;SDS011;61865;50.232;18.614;2023-08-01T03:52:59;7.03;;;3.05;;
73585;SDS011;61865;50.232;18.614;2023-08-01T03:55:21;7.97;;;3.40;;
73585;SDS011;61865;50.232;18.614;2023-08-01T03:57:44;8.90;;;3.22;;
73585;SDS011;61865;50.232;18.614;2023-08-01T04:00:07;7.13;;;3.22;;
73585;SDS011;61865;50.232;18.614;2023-08-01T04:02:33;5.78;;;3.00;;
73585;SDS011;61865;50.232;18.614;2023-08-01T04:04:55;5.47;;;3.17;;
73585;SDS011;61865;50.232;18.614;2023-08-01T04:07:19;5.47;;;3.10;;
73585;SDS011;61865;50.232;18.614;2023-08-01T04:09:41;5.75;;;2.75;;
73585;SDS011;61865;50.232;18.614;2023-08-01T04:12:04;9.02;;;2.90;;
73585;SDS011;61865;50.232;18.614;2023-08-01T04:14:27;8.32;;;3.17;;
73585;SDS011;61865;50.232;18.614;2023-08-01T04:16:49;6.20;;;2.72;;
73585;SDS011;61865;50.232;18.614;2023-08-01T04:19:12;6.10;;;2.95;;
73585;SDS011;61865;50.232;18.614;2023-08-01T04:21:34;5.93;;;2.63;;
73585;SDS011;61865;50.232;18.614;2023-08-01T04:23:58;6.63;;;2.97;;
73585;SDS011;61865;50.232;18.614;2023-08-01T04:26:20;7.45;;;2.58;;
73585;SDS011;61865;50.232;18.614;2023-08-01T04:28:42;4.57;;;2.70;;
73585;SDS011;61865;50.232;18.614;2023-08-01T04:31:05;5.82;;;2.40;;
73585;SDS011;61865;50.232;18.614;2023-08-01T04:33:27;6.50;;;2.53;;
73585;SDS011;61865;50.232;18.614;2023-08-01T04:35:49;5.45;;;2.70;;
73585;SDS011;61865;50.232;18.614;2023-08-01T04:38:12;5.60;;;2.75;;
73585;SDS011;61865;50.232;18.614;2023-08-01T04:40:35;4.43;;;2.38;;
73585;SDS011;61865;50.232;18.614;2023-08-01T04:42:58;5.80;;;2.85;;
73585;SDS011;61865;50.232;18.614;2023-08-01T04:45:20;6.80;;;2.63;;
73585;SDS011;61865;50.232;18.614;2023-08-01T04:47:42;5.40;;;2.30;;
73585;SDS011;61865;50.232;18.614;2023-08-01T04:50:05;6.57;;;2.28;;
73585;SDS011;61865;50.232;18.614;2023-08-01T04:52:28;5.35;;;2.42;;
73585;SDS011;61865;50.232;18.614;2023-08-01T04:54:50;15.50;;;2.75;;
73585;SDS011;61865;50.232;18.614;2023-08-01T04:57:17;4.55;;;2.17;;
73585;SDS011;61865;50.232;18.614;2023-08-01T04:59:40;5.47;;;2.20;;
73585;SDS011;61865;50.232;18.614;2023-08-01T05:02:02;6.00;;;2.80;;
73585;SDS011;61865;50.232;18.614;2023-08-01T05:04:25;8.23;;;2.78;;
73585;SDS011;61865;50.232;18.614;2023-08-01T05:06:47;6.22;;;2.20;;
73585;SDS011;61865;50.232;18.614;2023-08-01T05:09:09;9.27;;;2.70;;
73585;SDS011;61865;50.232;18.614;2023-08-01T05:11:31;8.70;;;2.80;;
73585;SDS011;61865;50.232;18.614;2023-08-01T05:13:55;4.78;;;2.40;;
73585;SDS011;61865;50.232;18.614;2023-08-01T05:16:17;8.77;;;2.53;;
73585;SDS011;61865;50.232;18.614;2023-08-01T05:18:40;4.90;;;2.75;;
73585;SDS011;61865;50.232;18.614;2023-08-01T05:21:02;5.85;;;2.40;;
73585;SDS011;61865;50.232;18.614;2023-08-01T05:23:25;6.57;;;2.50;;
73585;SDS011;61865;50.232;18.614;2023-08-01T05:25:47;7.47;;;2.33;;
73585;SDS011;61865;50.232;18.614;2023-08-01T05:28:09;4.95;;;2.58;;
73585;SDS011;61865;50.232;18.614;2023-08-01T05:30:36;10.43;;;2.60;;
73585;SDS011;61865;50.232;18.614;2023-08-01T05:32:58;3.63;;;2.35;;
73585;SDS011;61865;50.232;18.614;2023-08-01T05:35:21;5.88;;;2.40;;
73585;SDS011;61865;50.232;18.614;2023-08-01T05:37:43;4.40;;;2.45;;
73585;SDS011;61865;50.232;18.614;2023-08-01T05:40:06;5.70;;;2.45;;
73585;SDS011;61865;50.232;18.614;2023-08-01T05:42:29;4.60;;;2.28;;
73585;SDS011;61865;50.232;18.614;2023-08-01T05:44:51;5.90;;;2.63;;
73585;SDS011;61865;50.232;18.614;2023-08-01T05:47:15;10.15;;;2.72;;
73585;SDS011;61865;50.232;18.614;2023-08-01T05:49:37;5.38;;;3.00;;
73585;SDS011;61865;50.232;18.614;2023-08-01T05:52:01;5.30;;;2.50;;
73585;SDS011;61865;50.232;18.614;2023-08-01T05:54:23;6.20;;;2.72;;
73585;SDS011;61865;50.232;18.614;2023-08-01T05:56:46;5.70;;;2.65;;
73585;SDS011;61865;50.232;18.614;2023-08-01T05:59:09;5.18;;;2.80;;
73585;SDS011;61865;50.232;18.614;2023-08-01T06:01:31;5.43;;;2.85;;
73585;SDS011;61865;50.232;18.614;2023-08-01T06:03:55;7.57;;;2.83;;
73585;SDS011;61865;50.232;18.614;2023-08-01T06:06:17;5.40;;;2.47;;
73585;SDS011;61865;50.232;18.614;2023-08-01T06:08:39;9.43;;;2.60;;
73585;SDS011;61865;50.232;18.614;2023-08-01T06:11:02;7.53;;;2.70;;
73585;SDS011;61865;50.232;18.614;2023-08-01T06:13:24;5.75;;;2.55;;
73585;SDS011;61865;50.232;18.614;2023-08-01T06:15:47;6.82;;;3.10;;
73585;SDS011;61865;50.232;18.614;2023-08-01T06:18:12;8.13;;;2.78;;
73585;SDS011;61865;50.232;18.614;2023-08-01T06:20:36;8.57;;;2.85;;
73585;SDS011;61865;50.232;18.614;2023-08-01T06:22:58;5.85;;;2.67;;
73585;SDS011;61865;50.232;18.614;2023-08-01T06:25:21;8.27;;;3.08;;
73585;SDS011;61865;50.232;18.614;2023-08-01T06:27:43;7.50;;;3.40;;
73585;SDS011;61865;50.232;18.614;2023-08-01T06:30:06;6.13;;;2.60;;
73585;SDS011;61865;50.232;18.614;2023-08-01T06:32:29;7.55;;;2.88;;
73585;SDS011;61865;50.232;18.614;2023-08-01T06:34:51;7.47;;;2.95;;
73585;SDS011;61865;50.232;18.614;2023-08-01T06:37:15;8.15;;;2.70;;
73585;SDS011;61865;50.232;18.614;2023-08-01T06:39:37;5.47;;;2.40;;
73585;SDS011;61865;50.232;18.614;2023-08-01T06:41:59;6.18;;;3.00;;
73585;SDS011;61865;50.232;18.614;2023-08-01T06:44:23;8.18;;;2.85;;
73585;SDS011;61865;50.232;18.614;2023-08-01T06:46:45;6.32;;;2.63;;
73585;SDS011;61865;50.232;18.614;2023-08-01T06:49:08;5.53;;;2.75;;
73585;SDS011;61865;50.232;18.614;2023-08-01T06:51:30;8.90;;;2.95;;
73585;SDS011;61865;50.232;18.614;2023-08-01T06:53:54;11.18;;;3.35;;
73585;SDS011;61865;50.232;18.614;2023-08-01T06:56:16;10.13;;;3.30;;
73585;SDS011;61865;50.232;18.614;2023-08-01T06:58:38;6.05;;;3.10;;
73585;SDS011;61865;50.232;18.614;2023-08-01T07:01:01;10.15;;;3.10;;
73585;SDS011;61865;50.232;18.614;2023-08-01T07:03:23;6.40;;;3.10;;
73585;SDS011;61865;50.232;18.614;2023-08-01T07:05:46;11.07;;;3.47;;
73585;SDS011;61865;50.232;18.614;2023-08-01T07:08:08;10.38;;;3.30;;
73585;SDS011;61865;50.232;18.614;2023-08-01T07:10:35;6.88;;;3.42;;
73585;SDS011;61865;50.232;18.614;2023-08-01T07:12:57;7.20;;;3.20;;
73585;SDS011;61865;50.232;18.614;2023-08-01T07:15:22;6.63;;;3.50;;
73585;SDS011;61865;50.232;18.614;2023-08-01T07:17:44;8.25;;;3.05;;
73585;SDS011;61865;50.232;18.614;2023-08-01T07:20:07;10.07;;;2.97;;
73585;SDS011;61865;50.232;18.614;2023-08-01T07:22:32;7.70;;;3.42;;
73585;SDS011;61865;50.232;18.614;2023-08-01T07:24:54;8.45;;;3.65;;
73585;SDS011;61865;50.232;18.614;2023-08-01T07:27:18;8.30;;;3.45;;
73585;SDS011;61865;50.232;18.614;2023-08-01T07:29:40;5.70;;;3.10;;
73585;SDS011;61865;50.232;18.614;2023-08-01T07:32:03;7.43;;;3.67;;
73585;SDS011;61865;50.232;18.614;2023-08-01T07:34:26;7.57;;;3.47;;
73585;SDS011;61865;50.232;18.614;2023-08-01T07:36:50;8.95;;;3.70;;
73585;SDS011;61865;50.232;18.614;2023-08-01T07:39:12;11.00;;;3.47;;
73585;SDS011;61865;50.232;18.614;2023-08-01T07:41:34;8.63;;;4.18;;
73585;SDS011;61865;50.232;18.614;2023-08-01T07:43:58;8.38;;;3.80;;
73585;SDS011;61865;50.232;18.614;2023-08-01T07:46:20;11.18;;;3.75;;
73585;SDS011;61865;50.232;18.614;2023-08-01T07:48:43;9.70;;;4.43;;
73585;SDS011;61865;50.232;18.614;2023-08-01T07:51:05;8.82;;;3.80;;
73585;SDS011;61865;50.232;18.614;2023-08-01T07:53:27;11.82;;;4.03;;
73585;SDS011;61865;50.232;18.614;2023-08-01T07:55:51;8.27;;;3.80;;
73585;SDS011;61865;50.232;18.614;2023-08-01T07:58:13;14.88;;;4.07;;
73585;SDS011;61865;50.232;18.614;2023-08-01T08:00:37;10.57;;;3.80;;
73585;SDS011;61865;50.232;18.614;2023-08-01T08:02:59;6.82;;;3.42;;
73585;SDS011;61865;50.232;18.614;2023-08-01T08:05:22;7.70;;;3.83;;
73585;SDS011;61865;50.232;18.614;2023-08-01T08:07:44;11.07;;;4.13;;
73585;SDS011;61865;50.232;18.614;2023-08-01T08:10:07;6.65;;;3.63;;
73585;SDS011;61865;50.232;18.614;2023-08-01T08:12:29;9.35;;;3.58;;
73585;SDS011;61865;50.232;18.614;2023-08-01T08:14:51;12.02;;;3.60;;
73585;SDS011;61865;50.232;18.614;2023-08-01T08:17:15;6.50;;;3.25;;
73585;SDS011;61865;50.232;18.614;2023-08-01T08:19:38;6.72;;;3.10;;
73585;SDS011;61865;50.232;18.614;2023-08-01T08:22:00;7.88;;;3.67;;
73585;SDS011;61865;50.232;18.614;2023-08-01T08:24:22;6.95;;;3.38;;
73585;SDS011;61865;50.232;18.614;2023-08-01T08:26:45;8.65;;;3.78;;
73585;SDS011;61865;50.232;18.614;2023-08-01T08:29:07;9.73;;;3.80;;
73585;SDS011;61865;50.232;18.614;2023-08-01T08:31:29;12.20;;;3.83;;
73585;SDS011;61865;50.232;18.614;2023-08-01T08:33:53;6.22;;;3.50;;
73585;SDS011;61865;50.232;18.614;2023-08-01T08:36:15;8.43;;;3.42;;
73585;SDS011;61865;50.232;18.614;2023-08-01T08:38:38;7.07;;;3.95;;
73585;SDS011;61865;50.232;18.614;2023-08-01T08:41:05;7.10;;;3.30;;
73585;SDS011;61865;50.232;18.614;2023-08-01T08:43:28;6.13;;;3.42;;
73585;SDS011;61865;50.232;18.614;2023-08-01T08:45:51;7.95;;;3.22;;
73585;SDS011;61865;50.232;18.614;2023-08-01T08:48:16;7.78;;;3.60;;
73585;SDS011;61865;50.232;18.614;2023-08-01T08:50:41;12.00;;;3.67;;
73585;SDS011;61865;50.232;18.614;2023-08-01T08:53:04;9.02;;;3.45;;
73585;SDS011;61865;50.232;18.614;2023-08-01T08:55:32;8.02;;;3.58;;
73585;SDS011;61865;50.232;18.614;2023-08-01T08:57:55;9.52;;;3.17;;
73585;SDS011;61865;50.232;18.614;2023-08-01T09:00:17;6.50;;;3.40;;
73585;SDS011;61865;50.232;18.614;2023-08-01T09:02:40;9.05;;;3.38;;
73585;SDS011;61865;50.232;18.614;2023-08-01T09:05:02;8.35;;;3.65;;
73585;SDS011;61865;50.232;18.614;2023-08-01T09:07:27;7.53;;;3.83;;
73585;SDS011;61865;50.232;18.614;2023-08-01T09:09:51;13.75;;;3.60;;
73585;SDS011;61865;50.232;18.614;2023-08-01T09:12:13;9.85;;;3.47;;
73585;SDS011;61865;50.232;18.614;2023-08-01T09:14:36;4.93;;;3.17;;
73585;SDS011;61865;50.232;18.614;2023-08-01T09:17:05;7.00;;;3.15;;
73585;SDS011;61865;50.232;18.614;2023-08-01T09:19:27;5.97;;;3.10;;
73585;SDS011;61865;50.232;18.614;2023-08-01T09:21:50;7.13;;;3.30;;
73585;SDS011;61865;50.232;18.614;2023-08-01T09:24:14;6.28;;;3.10;;
73585;SDS011;61865;50.232;18.614;2023-08-01T09:26:37;7.38;;;3.17;;
73585;SDS011;61865;50.232;18.614;2023-08-01T09:28:59;12.38;;;3.63;;
73585;SDS011;61865;50.232;18.614;2023-08-01T09:31:26;9.05;;;3.42;;
73585;SDS011;61865;50.232;18.614;2023-08-01T09:33:48;8.10;;;3.55;;
73585;SDS011;61865;50.232;18.614;2023-08-01T09:36:11;7.78;;;3.60;;
73585;SDS011;61865;50.232;18.614;2023-08-01T09:38:42;11.82;;;4.03;;
73585;SDS011;61865;50.232;18.614;2023-08-01T09:41:06;4.93;;;3.00;;
73585;SDS011;61865;50.232;18.614;2023-08-01T09:43:33;6.07;;;3.00;;
73585;SDS011;61865;50.232;18.614;2023-08-01T09:45:56;6.13;;;3.00;;
73585;SDS011;61865;50.232;18.614;2023-08-01T09:48:24;5.10;;;3.20;;
73585;SDS011;61865;50.232;18.614;2023-08-01T09:50:47;8.00;;;3.05;;
73585;SDS011;61865;50.232;18.614;2023-08-01T09:53:09;5.35;;;2.90;;
73585;SDS011;61865;50.232;18.614;2023-08-01T09:55:32;9.07;;;3.50;;
73585;SDS011;61865;50.232;18.614;2023-08-01T09:57:56;5.90;;;3.00;;
73585;SDS011;61865;50.232;18.614;2023-08-01T10:00:19;4.72;;;2.97;;
73585;SDS011;61865;50.232;18.614;2023-08-01T10:02:41;5.93;;;3.15;;
73585;SDS011;61865;50.232;18.614;2023-08-01T10:05:05;5.90;;;3.00;;
73585;SDS011;61865;50.232;18.614;2023-08-01T10:07:29;5.35;;;2.70;;
73585;SDS011;61865;50.232;18.614;2023-08-01T10:09:52;8.73;;;3.15;;
73585;SDS011;61865;50.232;18.614;2023-08-01T10:12:17;6.20;;;3.03;;
73585;SDS011;61865;50.232;18.614;2023-08-01T10:14:41;7.80;;;3.20;;
73585;SDS011;61865;50.232;18.614;2023-08-01T10:17:04;4.97;;;2.92;;
73585;SDS011;61865;50.232;18.614;2023-08-01T10:19:26;6.97;;;2.80;;
73585;SDS011;61865;50.232;18.614;2023-08-01T10:21:49;12.98;;;3.55;;
73585;SDS011;61865;50.232;18.614;2023-08-01T10:24:12;6.70;;;2.75;;
73585;SDS011;61865;50.232;18.614;2023-08-01T10:26:35;6.55;;;2.83;;
73585;SDS011;61865;50.232;18.614;2023-08-01T10:28:57;5.20;;;3.15;;
73585;SDS011;61865;50.232;18.614;2023-08-01T10:31:23;5.15;;;3.00;;
73585;SDS011;61865;50.232;18.614;2023-08-01T10:33:46;4.88;;;2.83;;
73585;SDS011;61865;50.232;18.614;2023-08-01T10:36:12;3.95;;;2.60;;
73585;SDS011;61865;50.232;18.614;2023-08-01T10:38:43;6.82;;;3.03;;
73585;SDS011;61865;50.232;18.614;2023-08-01T10:41:06;7.28;;;3.78;;
73585;SDS011;61865;50.232;18.614;2023-08-01T10:43:28;7.60;;;3.22;;
73585;SDS011;61865;50.232;18.614;2023-08-01T10:45:59;6.47;;;3.10;;
73585;SDS011;61865;50.232;18.614;2023-08-01T10:48:23;5.38;;;2.85;;
73585;SDS011;61865;50.232;18.614;2023-08-01T10:50:53;9.27;;;3.58;;
73585;SDS011;61865;50.232;18.614;2023-08-01T10:53:20;6.18;;;3.45;;
73585;SDS011;61865;50.232;18.614;2023-08-01T10:55:44;7.10;;;2.97;;
73585;SDS011;61865;50.232;18.614;2023-08-01T10:58:07;8.40;;;3.20;;
73585;SDS011;61865;50.232;18.614;2023-08-01T11:00:29;5.20;;;3.45;;
73585;SDS011;61865;50.232;18.614;2023-08-01T11:02:52;7.00;;;3.63;;
73585;SDS011;61865;50.232;18.614;2023-08-01T11:05:16;8.18;;;3.70;;
73585;SDS011;61865;50.232;18.614;2023-08-01T11:07:38;6.45;;;3.38;;
73585;SDS011;61865;50.232;18.614;2023-08-01T11:10:02;4.88;;;3.30;;
73585;SDS011;61865;50.232;18.614;2023-08-01T11:12:25;4.75;;;3.10;;
73585;SDS011;61865;50.232;18.614;2023-08-01T11:14:47;10.40;;;3.40;;
73585;SDS011;61865;50.232;18.614;2023-08-01T11:17:11;5.85;;;3.50;;
73585;SDS011;61865;50.232;18.614;2023-08-01T11:19:33;7.25;;;3.47;;
73585;SDS011;61865;50.232;18.614;2023-08-01T11:22:08;6.20;;;3.40;;
73585;SDS011;61865;50.232;18.614;2023-08-01T11:24:30;6.97;;;3.08;;
73585;SDS011;61865;50.232;18.614;2023-08-01T11:26:53;6.53;;;3.53;;
73585;SDS011;61865;50.232;18.614;2023-08-01T11:29:16;6.65;;;3.47;;
73585;SDS011;61865;50.232;18.614;2023-08-01T11:31:38;6.10;;;3.50;;
73585;SDS011;61865;50.232;18.614;2023-08-01T11:34:01;9.32;;;3.60;;
73585;SDS011;61865;50.232;18.614;2023-08-01T11:36:25;6.72;;;3.13;;
73585;SDS011;61865;50.232;18.614;2023-08-01T11:38:49;7.55;;;4.00;;
73585;SDS011;61865;50.232;18.614;2023-08-01T11:41:12;13.80;;;4.63;;
73585;SDS011;61865;50.232;18.614;2023-08-01T11:43:37;6.32;;;3.80;;
73585;SDS011;61865;50.232;18.614;2023-08-01T11:46:00;5.57;;;3.10;;
73585;SDS011;61865;50.232;18.614;2023-08-01T11:48:23;5.90;;;3.42;;
73585;SDS011;61865;50.232;18.614;2023-08-01T11:50:45;5.95;;;3.50;;
73585;SDS011;61865;50.232;18.614;2023-08-01T11:53:16;5.72;;;3.50;;
73585;SDS011;61865;50.232;18.614;2023-08-01T11:55:41;4.93;;;3.15;;
73585;SDS011;61865;50.232;18.614;2023-08-01T11:58:05;5.65;;;3.45;;
73585;SDS011;61865;50.232;18.614;2023-08-01T12:00:27;5.57;;;3.50;;
73585;SDS011;61865;50.232;18.614;2023-08-01T12:02:50;6.45;;;3.20;;
73585;SDS011;61865;50.232;18.614;2023-08-01T12:05:20;5.65;;;3.03;;
73585;SDS011;61865;50.232;18.614;2023-08-01T12:07:42;5.88;;;3.03;;
73585;SDS011;61865;50.232;18.614;2023-08-01T12:10:05;6.07;;;3.40;;
73585;SDS011;61865;50.232;18.614;2023-08-01T12:12:29;5.80;;;3.28;;
73585;SDS011;61865;50.232;18.614;2023-08-01T12:14:52;5.50;;;3.17;;
73585;SDS011;61865;50.232;18.614;2023-08-01T12:17:14;6.15;;;3.28;;
73585;SDS011;61865;50.232;18.614;2023-08-01T12:19:36;6.32;;;3.25;;
73585;SDS011;61865;50.232;18.614;2023-08-01T12:21:59;9.77;;;3.30;;
73585;SDS011;61865;50.232;18.614;2023-08-01T12:24:21;5.60;;;3.63;;
73585;SDS011;61865;50.232;18.614;2023-08-01T12:26:44;7.18;;;3.70;;
73585;SDS011;61865;50.232;18.614;2023-08-01T12:29:06;5.95;;;3.00;;
73585;SDS011;61865;50.232;18.614;2023-08-01T12:31:29;7.15;;;3.75;;
73585;SDS011;61865;50.232;18.614;2023-08-01T12:33:55;6.18;;;3.33;;
73585;SDS011;61865;50.232;18.614;2023-08-01T12:36:17;6.20;;;3.30;;
73585;SDS011;61865;50.232;18.614;2023-08-01T12:38:39;5.07;;;3.20;;
73585;SDS011;61865;50.232;18.614;2023-08-01T12:41:02;7.40;;;3.25;;
73585;SDS011;61865;50.232;18.614;2023-08-01T12:43:24;6.80;;;3.42;;
73585;SDS011;61865;50.232;18.614;2023-08-01T12:45:48;5.63;;;3.20;;
73585;SDS011;61865;50.232;18.614;2023-08-01T12:48:10;7.05;;;3.42;;
73585;SDS011;61865;50.232;18.614;2023-08-01T12:50:33;6.32;;;3.38;;
73585;SDS011;61865;50.232;18.614;2023-08-01T12:52:55;8.60;;;3.95;;
73585;SDS011;61865;50.232;18.614;2023-08-01T12:55:17;7.18;;;3.75;;
73585;SDS011;61865;50.232;18.614;2023-08-01T12:57:40;5.35;;;3.10;;
73585;SDS011;61865;50.232;18.614;2023-08-01T13:00:03;8.70;;;3.88;;
73585;SDS011;61865;50.232;18.614;2023-08-01T13:02:28;8.10;;;3.80;;
73585;SDS011;61865;50.232;18.614;2023-08-01T13:04:50;8.57;;;3.45;;
73585;SDS011;61865;50.232;18.614;2023-08-01T13:07:12;7.05;;;3.53;;
73585;SDS011;61865;50.232;18.614;2023-08-01T13:09:35;6.50;;;3.72;;
73585;SDS011;61865;50.232;18.614;2023-08-01T13:11:57;6.85;;;3.72;;
73585;SDS011;61865;50.232;18.614;2023-08-01T13:14:20;10.65;;;3.50;;
73585;SDS011;61865;50.232;18.614;2023-08-01T13:16:42;8.50;;;4.13;;
73585;SDS011;61865;50.232;18.614;2023-08-01T13:19:06;8.02;;;3.58;;
73585;SDS011;61865;50.232;18.614;2023-08-01T13:21:28;5.85;;;3.53;;
73585;SDS011;61865;50.232;18.614;2023-08-01T13:23:51;5.60;;;3.53;;
73585;SDS011;61865;50.232;18.614;2023-08-01T13:26:13;5.10;;;3.25;;
73585;SDS011;61865;50.232;18.614;2023-08-01T13:28:35;4.88;;;3.05;;
73585;SDS011;61865;50.232;18.614;2023-08-01T13:30:58;4.72;;;2.97;;
73585;SDS011;61865;50.232;18.614;2023-08-01T13:33:20;6.13;;;3.20;;
73585;SDS011;61865;50.232;18.614;2023-08-01T13:35:44;4.55;;;3.08;;
73585;SDS011;61865;50.232;18.614;2023-08-01T13:38:06;7.65;;;3.55;;
73585;SDS011;61865;50.232;18.614;2023-08-01T13:40:28;7.20;;;3.63;;
73585;SDS011;61865;50.232;18.614;2023-08-01T13:42:51;4.78;;;3.28;;
73585;SDS011;61865;50.232;18.614;2023-08-01T13:45:13;5.10;;;3.40;;
73585;SDS011;61865;50.232;18.614;2023-08-01T13:47:35;7.07;;;3.25;;
73585;SDS011;61865;50.232;18.614;2023-08-01T13:49:58;6.78;;;3.40;;
73585;SDS011;61865;50.232;18.614;2023-08-01T13:52:21;6.38;;;3.47;;
73585;SDS011;61865;50.232;18.614;2023-08-01T13:54:44;6.93;;;3.50;;
73585;SDS011;61865;50.232;18.614;2023-08-01T13:57:06;9.15;;;3.60;;
73585;SDS011;61865;50.232;18.614;2023-08-01T13:59:28;7.35;;;3.75;;
73585;SDS011;61865;50.232;18.614;2023-08-01T14:01:51;7.32;;;3.80;;
73585;SDS011;61865;50.232;18.614;2023-08-01T14:04:14;6.10;;;3.75;;
73585;SDS011;61865;50.232;18.614;2023-08-01T14:06:36;6.07;;;3.20;;
73585;SDS011;61865;50.232;18.614;2023-08-01T14:09:00;6.00;;;3.33;;